createdAt,value
2022-09-04T00:01:03.532Z,95616
2022-09-04T00:02:12.180Z,95620
2022-09-04T00:03:21.926Z,95614
2022-09-04T00:04:29.640Z,95619
2022-09-04T00:05:38.251Z,95622
2022-09-04T00:06:46.927Z,95621
2022-09-04T00:07:55.581Z,95621
2022-09-04T00:09:05.296Z,95625
2022-09-04T00:10:13.991Z,95622
2022-09-04T00:11:22.673Z,95624
2022-09-04T00:12:32.373Z,95621
2022-09-04T00:13:40.038Z,95620
2022-09-04T00:14:49.790Z,95621
2022-09-04T00:15:58.467Z,95621
2022-09-04T00:17:07.124Z,95625
2022-09-04T00:18:16.836Z,95625
2022-09-04T00:19:25.458Z,95625
2022-09-04T00:20:36.160Z,95626
2022-09-04T00:21:43.823Z,95620
2022-09-04T00:22:53.474Z,95626
2022-09-04T00:24:03.216Z,95624
2022-09-04T00:25:10.924Z,95623
2022-09-04T00:26:20.895Z,95624
2022-09-04T00:27:29.342Z,95622
2022-09-04T00:28:39.007Z,95624
2022-09-04T00:29:48.689Z,95625
2022-09-04T00:30:57.455Z,95626
2022-09-04T00:32:06.069Z,95625
2022-09-04T00:33:16.034Z,95624
2022-09-04T00:34:24.399Z,95626
2022-09-04T00:35:33.059Z,95628
2022-09-04T00:36:44.872Z,95629
2022-09-04T00:37:53.441Z,95630
2022-09-04T00:39:03.132Z,95629
2022-09-04T00:40:12.821Z,95630
2022-09-04T00:41:22.476Z,95628
2022-09-04T00:42:32.208Z,95627
2022-09-04T00:43:39.986Z,95631
2022-09-04T00:44:48.635Z,95628
2022-09-04T00:45:58.380Z,95627
2022-09-04T00:47:06.978Z,95630
2022-09-04T00:48:16.684Z,95628
2022-09-04T00:49:24.472Z,95626
2022-09-04T00:50:33.182Z,95630
2022-09-04T00:51:42.865Z,95628
2022-09-04T00:52:50.521Z,95631
2022-09-04T00:54:01.189Z,95632
2022-09-04T00:55:09.944Z,95638
2022-09-04T00:56:18.596Z,95637
2022-09-04T00:57:28.269Z,95637
2022-09-04T00:58:35.970Z,95636
2022-09-04T00:59:45.636Z,95636
2022-09-04T01:00:55.505Z,95641
2022-09-04T01:02:04.071Z,95640
2022-09-04T01:03:12.700Z,95639
2022-09-04T01:04:23.470Z,95640
2022-09-04T01:05:32.161Z,95643
2022-09-04T01:06:41.859Z,95646
2022-09-04T01:07:49.519Z,95646
2022-09-04T01:08:58.213Z,95646
2022-09-04T01:10:07.965Z,95645
2022-09-04T01:11:16.702Z,95643
2022-09-04T01:12:25.434Z,95643
2022-09-04T01:13:33.097Z,95639
2022-09-04T01:14:42.757Z,95640
2022-09-04T01:15:53.471Z,95643
2022-09-04T01:17:03.180Z,95645
2022-09-04T01:18:12.891Z,95641
2022-09-04T01:19:22.554Z,95645
2022-09-04T01:20:30.278Z,95643
2022-09-04T01:21:38.968Z,95645
2022-09-04T01:22:48.647Z,95647
2022-09-04T01:23:57.337Z,95646
2022-09-04T01:25:07.018Z,95649
2022-09-04T01:26:14.722Z,95645
2022-09-04T01:27:23.368Z,95647
2022-09-04T01:28:33.031Z,95647
2022-09-04T01:29:40.717Z,95649
2022-09-04T01:30:50.396Z,95648
2022-09-04T01:31:59.145Z,95650
2022-09-04T01:33:07.779Z,95649
2022-09-04T01:34:17.581Z,95650
2022-09-04T01:35:26.343Z,95650
2022-09-04T01:36:35.005Z,95652
2022-09-04T01:37:44.712Z,95650
2022-09-04T01:38:53.395Z,95652
2022-09-04T01:40:02.117Z,95655
2022-09-04T01:41:10.794Z,95653
2022-09-04T01:42:19.460Z,95656
2022-09-04T01:43:29.167Z,95659
2022-09-04T01:44:36.826Z,95659
2022-09-04T01:45:45.500Z,95658
2022-09-04T01:46:55.393Z,95662
2022-09-04T01:48:05.085Z,95657
2022-09-04T01:49:13.750Z,95659
2022-09-04T01:50:22.446Z,95660
2022-09-04T01:51:31.170Z,95659
2022-09-04T01:52:40.929Z,95659
2022-09-04T01:53:48.647Z,95667
2022-09-04T01:54:57.311Z,95666
2022-09-04T01:56:07.006Z,95666
2022-09-04T01:57:15.689Z,95667
2022-09-04T01:58:24.489Z,95664
2022-09-04T01:59:34.091Z,95665
2022-09-04T02:00:42.758Z,95663
2022-09-04T02:01:52.460Z,95659
2022-09-04T02:03:01.133Z,95664
2022-09-04T02:04:09.825Z,95664
2022-09-04T02:05:19.486Z,95667
2022-09-04T02:06:27.145Z,95665
2022-09-04T02:07:35.824Z,95663
2022-09-04T02:08:44.506Z,95665
2022-09-04T02:09:53.860Z,95657
2022-09-04T02:11:02.927Z,95662
2022-09-04T02:12:11.675Z,95661
2022-09-04T02:13:22.315Z,95665
2022-09-04T02:14:31.993Z,95666
2022-09-04T02:15:40.690Z,95663
2022-09-04T02:16:50.453Z,95661
2022-09-04T02:17:58.050Z,95664
2022-09-04T02:19:06.721Z,95665
2022-09-04T02:20:15.391Z,95659
2022-09-04T02:21:24.199Z,95663
2022-09-04T02:22:33.987Z,95664
2022-09-04T02:23:41.707Z,95660
2022-09-04T02:24:50.396Z,95665
2022-09-04T02:26:00.091Z,95658
2022-09-04T02:27:07.831Z,95666
2022-09-04T02:28:17.502Z,95662
2022-09-04T02:29:26.185Z,95664
2022-09-04T02:30:35.830Z,95667
2022-09-04T02:31:45.560Z,95664
2022-09-04T02:32:54.183Z,95664
2022-09-04T02:34:02.864Z,95665
2022-09-04T02:35:12.533Z,95662
2022-09-04T02:36:21.249Z,95664
2022-09-04T02:37:30.945Z,95663
2022-09-04T02:38:40.657Z,95667
2022-09-04T02:39:50.371Z,95665
2022-09-04T02:40:59.976Z,95663
2022-09-04T02:42:08.646Z,95666
2022-09-04T02:43:16.313Z,95668
2022-09-04T02:44:25.995Z,95673
2022-09-04T02:45:35.687Z,95668
2022-09-04T02:46:44.376Z,95673
2022-09-04T02:47:53.026Z,95675
2022-09-04T02:49:01.687Z,95672
2022-09-04T02:50:11.404Z,95670
2022-09-04T02:51:20.081Z,95671
2022-09-04T02:52:29.738Z,95669
2022-09-04T02:53:39.466Z,95670
2022-09-04T02:54:48.208Z,95670
2022-09-04T02:55:56.926Z,95670
2022-09-04T02:57:05.588Z,95667
2022-09-04T02:58:15.261Z,95668
2022-09-04T02:59:24.958Z,95668
2022-09-04T03:00:32.682Z,95668
2022-09-04T03:01:40.426Z,95669
2022-09-04T03:02:51.059Z,95669
2022-09-04T03:03:59.738Z,95669
2022-09-04T03:05:08.422Z,95665
2022-09-04T03:06:16.071Z,95672
2022-09-04T03:07:24.780Z,95669
2022-09-04T03:08:34.446Z,95672
2022-09-04T03:09:43.065Z,95666
2022-09-04T03:10:51.741Z,95670
2022-09-04T03:12:01.463Z,95672
2022-09-04T03:13:09.228Z,95673
2022-09-04T03:14:17.915Z,95674
2022-09-04T03:15:26.556Z,95672
2022-09-04T03:16:35.286Z,95673
2022-09-04T03:17:44.915Z,95672
2022-09-04T03:18:55.619Z,95670
2022-09-04T03:20:04.281Z,95676
2022-09-04T03:21:13.983Z,95672
2022-09-04T03:22:23.615Z,95674
2022-09-04T03:23:32.282Z,95673
2022-09-04T03:24:40.971Z,95677
2022-09-04T03:25:49.643Z,95676
2022-09-04T03:26:58.300Z,95674
2022-09-04T03:28:05.968Z,95675
2022-09-04T03:29:14.628Z,95674
2022-09-04T03:30:24.329Z,95677
2022-09-04T03:31:33.113Z,95672
2022-09-04T03:32:41.732Z,95674
2022-09-04T03:33:51.413Z,95676
2022-09-04T03:35:00.153Z,95677
2022-09-04T03:36:09.860Z,95676
2022-09-04T03:37:18.530Z,95677
2022-09-04T03:38:27.207Z,95679
2022-09-04T03:39:36.931Z,95676
2022-09-04T03:40:45.553Z,95675
2022-09-04T03:41:55.270Z,95679
2022-09-04T03:43:04.969Z,95678
2022-09-04T03:44:14.654Z,95679
2022-09-04T03:45:24.366Z,95677
2022-09-04T03:46:33.148Z,95678
2022-09-04T03:47:42.810Z,95687
2022-09-04T03:48:52.480Z,95688
2022-09-04T03:50:00.168Z,95686
2022-09-04T03:51:09.872Z,95687
2022-09-04T03:52:19.647Z,95688
2022-09-04T03:53:28.358Z,95693
2022-09-04T03:54:39.027Z,95687
2022-09-04T03:55:47.745Z,95691
2022-09-04T03:56:56.413Z,95693
2022-09-04T03:58:06.086Z,95691
2022-09-04T03:59:15.856Z,95692
2022-09-04T04:00:24.541Z,95691
2022-09-04T04:01:33.233Z,95690
2022-09-04T04:02:41.944Z,95693
2022-09-04T04:03:51.591Z,95692
2022-09-04T04:05:01.291Z,95694
2022-09-04T04:06:09.964Z,95693
2022-09-04T04:07:19.627Z,95694
2022-09-04T04:08:28.350Z,95696
2022-09-04T04:09:37.038Z,95695
2022-09-04T04:10:45.740Z,95697
2022-09-04T04:11:53.451Z,95696
2022-09-04T04:13:03.169Z,95700
2022-09-04T04:14:12.853Z,95701
2022-09-04T04:15:22.557Z,95701
2022-09-04T04:16:31.472Z,95701
2022-09-04T04:17:41.021Z,95702
2022-09-04T04:18:49.688Z,95702
2022-09-04T04:19:58.377Z,95708
2022-09-04T04:21:06.097Z,95708
2022-09-04T04:22:13.843Z,95709
2022-09-04T04:23:22.492Z,95711
2022-09-04T04:24:32.175Z,95713
2022-09-04T04:25:40.851Z,95711
2022-09-04T04:26:54.647Z,95716
2022-09-04T04:28:01.165Z,95714
2022-09-04T04:29:10.822Z,95712
2022-09-04T04:30:19.529Z,95716
2022-09-04T04:31:28.244Z,95715
2022-09-04T04:32:36.947Z,95714
2022-09-04T04:33:46.670Z,95713
2022-09-04T04:34:56.353Z,95718
2022-09-04T04:36:05.016Z,95720
2022-09-04T04:37:14.690Z,95721
2022-09-04T04:38:23.397Z,95721
2022-09-04T04:39:32.082Z,95724
2022-09-04T04:40:40.734Z,95724
2022-09-04T04:41:49.433Z,95731
2022-09-04T04:42:59.099Z,95732
2022-09-04T04:44:06.783Z,95732
2022-09-04T04:45:15.468Z,95737
2022-09-04T04:46:25.195Z,95738
2022-09-04T04:47:33.824Z,95742
2022-09-04T04:48:42.520Z,95744
2022-09-04T04:49:51.212Z,95743
2022-09-04T04:51:00.900Z,95746
2022-09-04T04:52:10.566Z,95745
2022-09-04T04:53:18.220Z,95752
2022-09-04T04:54:27.925Z,95748
2022-09-04T04:55:37.633Z,95752
2022-09-04T04:56:46.324Z,95751
2022-09-04T04:57:54.986Z,95755
2022-09-04T04:59:04.644Z,95753
2022-09-04T05:00:13.318Z,95758
2022-09-04T05:01:24.032Z,95757
2022-09-04T05:02:32.813Z,95761
2022-09-04T05:03:41.382Z,95764
2022-09-04T05:04:51.096Z,95763
2022-09-04T05:05:58.757Z,95767
2022-09-04T05:07:07.430Z,95766
2022-09-04T05:08:16.178Z,95774
2022-09-04T05:09:24.869Z,95767
2022-09-04T05:10:34.527Z,95772
2022-09-04T05:11:43.207Z,95771
2022-09-04T05:12:51.890Z,95774
2022-09-04T05:14:01.584Z,95772
2022-09-04T05:15:11.258Z,95775
2022-09-04T05:16:20.010Z,95775
2022-09-04T05:17:28.613Z,95781
2022-09-04T05:18:37.286Z,95788
2022-09-04T05:19:47.015Z,95787
2022-09-04T05:20:56.654Z,95786
2022-09-04T05:22:05.313Z,95783
2022-09-04T05:23:15.016Z,95785
2022-09-04T05:24:25.668Z,95786
2022-09-04T05:25:34.347Z,95789
2022-09-04T05:26:43.007Z,95789
2022-09-04T05:27:52.674Z,95790
2022-09-04T05:29:02.347Z,95788
2022-09-04T05:30:09.996Z,95792
2022-09-04T05:31:19.765Z,95791
2022-09-04T05:32:29.371Z,95796
2022-09-04T05:33:37.024Z,95793
2022-09-04T05:34:46.690Z,95801
2022-09-04T05:35:55.382Z,95804
2022-09-04T05:37:04.058Z,95806
2022-09-04T05:38:13.728Z,95809
2022-09-04T05:39:22.422Z,95805
2022-09-04T05:40:31.085Z,95809
2022-09-04T05:41:41.804Z,95808
2022-09-04T05:42:50.583Z,95806
2022-09-04T05:44:00.312Z,95810
2022-09-04T05:45:08.960Z,95808
2022-09-04T05:46:18.707Z,95810
2022-09-04T05:47:30.627Z,95809
2022-09-04T05:48:37.038Z,95811
2022-09-04T05:49:46.700Z,95813
2022-09-04T05:50:56.392Z,95813
2022-09-04T05:52:05.046Z,95812
2022-09-04T05:53:14.716Z,95812
2022-09-04T05:54:23.404Z,95808
2022-09-04T05:55:33.059Z,95806
2022-09-04T05:56:43.716Z,95810
2022-09-04T05:57:51.388Z,95807
2022-09-04T05:59:00.081Z,95811
2022-09-04T06:00:09.780Z,95813
2022-09-04T06:01:18.503Z,95813
2022-09-04T06:02:28.327Z,95817
2022-09-04T06:03:36.902Z,95815
2022-09-04T06:04:46.637Z,95813
2022-09-04T06:05:56.308Z,95820
2022-09-04T06:07:04.058Z,95818
2022-09-04T06:08:12.700Z,95818
2022-09-04T06:09:22.384Z,95826
2022-09-04T06:10:32.108Z,95826
2022-09-04T06:11:41.793Z,95832
2022-09-04T06:12:49.470Z,95828
2022-09-04T06:13:58.184Z,95832
2022-09-04T06:15:07.893Z,95833
2022-09-04T06:16:17.619Z,95835
2022-09-04T06:17:27.326Z,95833
2022-09-04T06:18:36.000Z,95836
2022-09-04T06:19:44.685Z,95836
2022-09-04T06:20:54.371Z,95838
2022-09-04T06:22:04.047Z,95837
2022-09-04T06:23:12.912Z,95840
2022-09-04T06:24:22.600Z,95840
2022-09-04T06:25:31.374Z,95843
2022-09-04T06:26:41.061Z,95847
2022-09-04T06:27:48.736Z,95846
2022-09-04T06:28:57.428Z,95844
2022-09-04T06:30:08.076Z,95847
2022-09-04T06:31:16.837Z,95846
2022-09-04T06:32:26.468Z,95848
2022-09-04T06:33:36.225Z,95848
2022-09-04T06:34:44.929Z,95845
2022-09-04T06:35:54.600Z,95851
2022-09-04T06:37:03.293Z,95846
2022-09-04T06:38:12.959Z,95847
2022-09-04T06:39:22.758Z,95847
2022-09-04T06:40:30.411Z,95852
2022-09-04T06:41:39.091Z,95850
2022-09-04T06:42:48.836Z,95853
2022-09-04T06:43:57.588Z,95855
2022-09-04T06:45:08.272Z,95860
2022-09-04T06:46:17.105Z,95860
2022-09-04T06:47:25.852Z,95861
2022-09-04T06:48:35.526Z,95860
2022-09-04T06:49:43.227Z,95861
2022-09-04T06:50:52.912Z,95860
2022-09-04T06:52:01.676Z,95858
2022-09-04T06:53:11.351Z,95860
2022-09-04T06:54:21.015Z,95863
2022-09-04T06:55:29.679Z,95861
2022-09-04T06:56:38.321Z,95862
2022-09-04T06:57:48.038Z,95863
2022-09-04T06:59:01.156Z,95867
2022-09-04T07:00:06.386Z,95871
2022-09-04T07:01:16.153Z,95871
2022-09-04T07:02:25.073Z,95866
2022-09-04T07:03:34.476Z,95873
2022-09-04T07:04:42.232Z,95873
2022-09-04T07:05:51.890Z,95872
2022-09-04T07:07:01.591Z,95875
2022-09-04T07:08:09.285Z,95875
2022-09-04T07:09:18.047Z,95874
2022-09-04T07:10:26.830Z,95879
2022-09-04T07:11:35.538Z,95881
2022-09-04T07:12:45.259Z,95879
2022-09-04T07:13:53.955Z,95883
2022-09-04T07:15:02.679Z,95887
2022-09-04T07:16:12.455Z,95886
2022-09-04T07:17:21.045Z,95884
2022-09-04T07:18:29.736Z,95883
2022-09-04T07:19:39.428Z,95884
2022-09-04T07:20:48.128Z,95883
2022-09-04T07:21:57.855Z,95882
2022-09-04T07:23:05.517Z,95887
2022-09-04T07:24:14.277Z,95885
2022-09-04T07:25:23.967Z,95886
2022-09-04T07:26:31.814Z,95886
2022-09-04T07:27:39.450Z,95889
2022-09-04T07:28:48.166Z,95889
2022-09-04T07:29:56.902Z,95894
2022-09-04T07:31:06.616Z,95893
2022-09-04T07:32:14.368Z,95897
2022-09-04T07:33:23.088Z,95897
2022-09-04T07:34:30.783Z,95899
2022-09-04T07:35:38.407Z,95898
2022-09-04T07:36:47.070Z,95899
2022-09-04T07:37:55.795Z,95904
2022-09-04T07:39:05.470Z,95903
2022-09-04T07:40:15.163Z,95905
2022-09-04T07:41:22.823Z,95906
2022-09-04T07:42:31.494Z,95903
2022-09-04T07:43:41.207Z,95905
2022-09-04T07:44:48.864Z,95907
2022-09-04T07:45:57.578Z,95909
2022-09-04T07:47:07.211Z,95911
2022-09-04T07:48:15.961Z,95909
2022-09-04T07:49:25.711Z,95910
2022-09-04T07:50:35.432Z,95912
2022-09-04T07:51:44.111Z,95915
2022-09-04T07:52:54.800Z,95914
2022-09-04T07:54:05.443Z,95914
2022-09-04T07:55:15.224Z,95916
2022-09-04T07:56:23.939Z,95921
2022-09-04T07:57:32.600Z,95919
2022-09-04T07:58:42.298Z,95927
2022-09-04T07:59:50.995Z,95927
2022-09-04T08:00:59.733Z,95925
2022-09-04T08:02:09.401Z,95927
2022-09-04T08:03:18.070Z,95934
2022-09-04T08:04:26.788Z,95937
2022-09-04T08:05:35.440Z,95938
2022-09-04T08:06:44.157Z,95935
2022-09-04T08:07:53.831Z,95936
2022-09-04T08:09:01.479Z,95936
2022-09-04T08:10:10.136Z,95942
2022-09-04T08:11:18.821Z,95944
2022-09-04T08:12:27.516Z,95945
2022-09-04T08:13:37.181Z,95943
2022-09-04T08:14:44.852Z,95943
2022-09-04T08:15:53.622Z,95948
2022-09-04T08:17:02.191Z,95949
2022-09-04T08:18:10.926Z,95944
2022-09-04T08:19:20.596Z,95949
2022-09-04T08:20:28.901Z,95947
2022-09-04T08:21:36.977Z,95952
2022-09-04T08:22:46.631Z,95954
2022-09-04T08:23:55.342Z,95956
2022-09-04T08:25:03.016Z,95956
2022-09-04T08:26:11.684Z,95958
2022-09-04T08:27:20.371Z,95956
2022-09-04T08:28:30.046Z,95952
2022-09-04T08:29:38.858Z,95953
2022-09-04T08:30:47.610Z,95956
2022-09-04T08:31:57.390Z,95957
2022-09-04T08:33:06.053Z,95954
2022-09-04T08:34:14.708Z,95960
2022-09-04T08:35:24.428Z,95958
2022-09-04T08:36:33.078Z,95959
2022-09-04T08:37:42.752Z,95956
2022-09-04T08:38:50.412Z,95954
2022-09-04T08:39:59.124Z,95961
2022-09-04T08:41:08.779Z,95959
2022-09-04T08:42:16.427Z,95961
2022-09-04T08:43:26.104Z,95965
2022-09-04T08:44:35.809Z,95963
2022-09-04T08:45:44.480Z,95962
2022-09-04T08:46:55.174Z,95967
2022-09-04T08:48:02.854Z,95960
2022-09-04T08:49:12.522Z,95961
2022-09-04T08:50:22.187Z,95964
2022-09-04T08:51:30.865Z,95968
2022-09-04T08:52:40.566Z,95964
2022-09-04T08:53:49.229Z,95966
2022-09-04T08:54:57.939Z,95971
2022-09-04T08:56:07.602Z,95969
2022-09-04T08:57:15.280Z,95965
2022-09-04T08:58:24.077Z,95970
2022-09-04T08:59:34.631Z,95971
2022-09-04T09:00:43.315Z,95974
2022-09-04T09:01:51.971Z,95974
2022-09-04T09:03:00.650Z,95976
2022-09-04T09:04:09.740Z,95974
2022-09-04T09:05:18.998Z,95979
2022-09-04T09:06:28.684Z,95982
2022-09-04T09:07:37.378Z,95982
2022-09-04T09:08:46.070Z,95977
2022-09-04T09:09:54.832Z,95981
2022-09-04T09:11:02.519Z,95977
2022-09-04T09:12:12.214Z,95973
2022-09-04T09:13:20.895Z,95972
2022-09-04T09:14:30.573Z,95976
2022-09-04T09:15:40.314Z,95976
2022-09-04T09:16:49.017Z,95974
2022-09-04T09:17:58.637Z,95979
2022-09-04T09:19:06.302Z,95979
2022-09-04T09:20:19.812Z,95974
2022-09-04T09:21:25.677Z,95976
2022-09-04T09:22:34.484Z,95972
2022-09-04T09:23:44.193Z,95971
2022-09-04T09:24:53.851Z,95973
2022-09-04T09:26:02.496Z,95972
2022-09-04T09:27:12.474Z,95975
2022-09-04T09:28:21.490Z,95972
2022-09-04T09:29:33.591Z,95964
2022-09-04T09:30:43.373Z,95966
2022-09-04T09:31:51.934Z,95968
2022-09-04T09:33:02.706Z,95971
2022-09-04T09:34:11.444Z,95969
2022-09-04T09:35:20.087Z,95968
2022-09-04T09:36:29.788Z,95966
2022-09-04T09:37:38.456Z,95965
2022-09-04T09:38:48.129Z,95969
2022-09-04T09:39:57.843Z,95969
2022-09-04T09:41:06.446Z,95962
2022-09-04T09:42:16.114Z,95965
2022-09-04T09:43:24.915Z,95969
2022-09-04T09:44:34.455Z,95963
2022-09-04T09:45:43.134Z,95961
2022-09-04T09:46:50.838Z,95963
2022-09-04T09:47:59.548Z,95962
2022-09-04T09:49:13.970Z,95958
2022-09-04T09:50:18.985Z,95954
2022-09-04T09:51:28.660Z,95956
2022-09-04T09:52:36.315Z,95954
2022-09-04T09:53:47.368Z,95956
2022-09-04T09:54:55.615Z,95955
2022-09-04T09:56:03.308Z,95956
2022-09-04T09:57:11.973Z,95955
2022-09-04T09:58:21.624Z,95957
2022-09-04T09:59:30.278Z,95954
2022-09-04T10:00:39.949Z,95957
2022-09-04T10:01:47.709Z,95958
2022-09-04T10:02:56.378Z,95954
2022-09-04T10:04:05.046Z,95955
2022-09-04T10:05:12.705Z,95954
2022-09-04T10:06:22.381Z,95961
2022-09-04T10:07:30.168Z,95955
2022-09-04T10:08:38.855Z,95959
2022-09-04T10:09:47.511Z,95955
2022-09-04T10:10:56.177Z,95957
2022-09-04T10:12:05.852Z,95957
2022-09-04T10:13:13.527Z,95956
2022-09-04T10:14:25.205Z,95955
2022-09-04T10:15:32.927Z,95961
2022-09-04T10:16:41.625Z,95966
2022-09-04T10:17:50.313Z,95967
2022-09-04T10:18:58.990Z,95961
2022-09-04T10:20:08.659Z,95957
2022-09-04T10:21:18.392Z,95959
2022-09-04T10:22:28.088Z,95961
2022-09-04T10:23:38.734Z,95969
2022-09-04T10:24:48.450Z,95963
2022-09-04T10:25:56.115Z,95960
2022-09-04T10:27:05.831Z,95963
2022-09-04T10:28:14.508Z,95962
2022-09-04T10:29:23.216Z,95961
2022-09-04T10:30:33.045Z,95969
2022-09-04T10:31:40.664Z,95973
2022-09-04T10:32:49.308Z,95963
2022-09-04T10:33:58.984Z,95970
2022-09-04T10:35:07.658Z,95968
2022-09-04T10:36:17.484Z,95970
2022-09-04T10:37:26.133Z,95965
2022-09-04T10:38:35.862Z,95958
2022-09-04T10:39:45.545Z,95964
2022-09-04T10:40:53.182Z,95968
2022-09-04T10:42:01.840Z,95963
2022-09-04T10:43:11.527Z,95967
2022-09-04T10:44:19.281Z,95967
2022-09-04T10:45:28.020Z,95963
2022-09-04T10:46:36.620Z,95966
2022-09-04T10:47:46.317Z,95966
2022-09-04T10:48:55.978Z,95963
2022-09-04T10:50:03.635Z,95961
2022-09-04T10:51:13.283Z,95963
2022-09-04T10:52:22.984Z,95966
2022-09-04T10:53:31.652Z,95965
2022-09-04T10:54:40.293Z,95960
2022-09-04T10:55:49.950Z,95958
2022-09-04T10:56:59.624Z,95956
2022-09-04T10:58:09.294Z,95958
2022-09-04T10:59:17.080Z,95953
2022-09-04T11:00:25.756Z,95955
2022-09-04T11:01:34.494Z,95957
2022-09-04T11:02:43.168Z,95953
2022-09-04T11:03:51.727Z,95958
2022-09-04T11:05:00.408Z,95955
2022-09-04T11:06:09.085Z,95955
2022-09-04T11:07:18.765Z,95956
2022-09-04T11:08:27.401Z,95957
2022-09-04T11:09:35.076Z,95958
2022-09-04T11:10:44.794Z,95958
2022-09-04T11:11:53.490Z,95959
2022-09-04T11:13:02.201Z,95960
2022-09-04T11:14:11.896Z,95959
2022-09-04T11:15:20.537Z,95963
2022-09-04T11:16:30.350Z,95957
2022-09-04T11:17:37.982Z,95956
2022-09-04T11:18:46.649Z,95957
2022-09-04T11:19:56.353Z,95953
2022-09-04T11:21:05.179Z,95960
2022-09-04T11:22:14.884Z,95960
2022-09-04T11:23:24.689Z,95962
2022-09-04T11:24:32.220Z,95957
2022-09-04T11:25:41.907Z,95960
2022-09-04T11:26:48.566Z,95962
2022-09-04T11:27:57.259Z,95961
2022-09-04T11:29:06.977Z,95960
2022-09-04T11:30:15.699Z,95959
2022-09-04T11:31:25.412Z,95955
2022-09-04T11:32:35.057Z,95960
2022-09-04T11:33:44.734Z,95952
2022-09-04T11:34:54.499Z,95951
2022-09-04T11:36:03.187Z,95952
2022-09-04T11:37:11.815Z,95951
2022-09-04T11:38:21.480Z,95952
2022-09-04T11:39:30.313Z,95952
2022-09-04T11:40:39.926Z,95954
2022-09-04T11:41:48.603Z,95952
2022-09-04T11:42:57.282Z,95951
2022-09-04T11:44:06.957Z,95952
2022-09-04T11:45:14.643Z,95942
2022-09-04T11:46:23.319Z,95951
2022-09-04T11:47:32.975Z,95954
2022-09-04T11:48:41.668Z,95955
2022-09-04T11:49:51.412Z,95954
2022-09-04T11:51:01.208Z,95956
2022-09-04T11:52:09.924Z,95953
2022-09-04T11:53:18.566Z,95954
2022-09-04T11:54:26.213Z,95951
2022-09-04T11:55:35.875Z,95950
2022-09-04T11:56:45.575Z,95947
2022-09-04T11:57:53.286Z,95958
2022-09-04T11:59:01.946Z,95960
2022-09-04T12:00:10.654Z,95959
2022-09-04T12:01:19.277Z,95964
2022-09-04T12:02:29.037Z,95963
2022-09-04T12:03:36.752Z,95959
2022-09-04T12:04:46.358Z,95964
2022-09-04T12:05:54.061Z,95957
2022-09-04T12:07:02.713Z,95963
2022-09-04T12:08:12.451Z,95958
2022-09-04T12:09:22.082Z,95959
2022-09-04T12:10:29.786Z,95957
2022-09-04T12:11:39.457Z,95959
2022-09-04T12:12:48.107Z,95958
2022-09-04T12:13:57.828Z,95961
2022-09-04T12:15:07.744Z,95965
2022-09-04T12:16:15.223Z,95961
2022-09-04T12:17:24.830Z,95961
2022-09-04T12:18:32.489Z,95960
2022-09-04T12:19:41.335Z,95965
2022-09-04T12:20:49.969Z,95962
2022-09-04T12:21:58.668Z,95964
2022-09-04T12:23:08.382Z,95957
2022-09-04T12:24:17.054Z,95955
2022-09-04T12:25:25.747Z,95956
2022-09-04T12:26:35.419Z,95954
2022-09-04T12:27:46.105Z,95955
2022-09-04T12:28:55.782Z,95953
2022-09-04T12:30:04.423Z,95950
2022-09-04T12:31:13.179Z,95954
2022-09-04T12:32:21.750Z,95947
2022-09-04T12:33:29.404Z,95955
2022-09-04T12:34:38.111Z,95956
2022-09-04T12:35:47.787Z,95958
2022-09-04T12:36:56.454Z,95952
2022-09-04T12:38:06.186Z,95952
2022-09-04T12:39:15.881Z,95952
2022-09-04T12:40:24.534Z,95951
2022-09-04T12:41:34.210Z,95952
2022-09-04T12:42:42.924Z,95959
2022-09-04T12:43:51.605Z,95958
2022-09-04T12:45:01.287Z,95960
2022-09-04T12:46:11.028Z,95960
2022-09-04T12:47:19.615Z,95955
2022-09-04T12:48:27.320Z,95965
2022-09-04T12:49:35.964Z,95955
2022-09-04T12:50:45.623Z,95966
2022-09-04T12:51:55.284Z,95956
2022-09-04T12:53:03.931Z,95960
2022-09-04T12:54:13.730Z,95957
2022-09-04T12:55:21.394Z,95954
2022-09-04T12:56:32.018Z,95954
2022-09-04T12:57:40.724Z,95962
2022-09-04T12:58:48.381Z,95957
2022-09-04T12:59:58.096Z,95952
2022-09-04T13:01:06.877Z,95961
2022-09-04T13:02:15.501Z,95959
2022-09-04T13:03:25.163Z,95963
2022-09-04T13:04:32.813Z,95958
2022-09-04T13:05:49.831Z,95961
2022-09-04T13:06:53.641Z,95961
2022-09-04T13:08:01.810Z,95959
2022-09-04T13:09:11.498Z,95963
2022-09-04T13:10:20.184Z,95967
2022-09-04T13:11:29.929Z,95967
2022-09-04T13:12:39.591Z,95969
2022-09-04T13:13:47.256Z,95968
2022-09-04T13:14:54.925Z,95970
2022-09-04T13:16:03.637Z,95973
2022-09-04T13:17:12.267Z,95970
2022-09-04T13:18:21.925Z,95969
2022-09-04T13:19:30.582Z,95969
2022-09-04T13:20:39.269Z,95974
2022-09-04T13:21:48.935Z,95976
2022-09-04T13:22:57.846Z,95980
2022-09-04T13:24:06.269Z,95979
2022-09-04T13:25:15.962Z,95978
2022-09-04T13:26:25.734Z,95978
2022-09-04T13:27:34.399Z,95974
2022-09-04T13:28:42.137Z,95974
2022-09-04T13:29:50.863Z,95966
2022-09-04T13:31:01.545Z,95975
2022-09-04T13:32:09.197Z,95971
2022-09-04T13:33:18.898Z,95974
2022-09-04T13:34:28.553Z,95976
2022-09-04T13:35:38.212Z,95973
2022-09-04T13:36:47.886Z,95963
2022-09-04T13:37:55.553Z,95975
2022-09-04T13:39:04.210Z,95975
2022-09-04T13:40:13.894Z,95969
2022-09-04T13:41:21.544Z,95971
2022-09-04T13:42:32.268Z,95966
2022-09-04T13:43:41.933Z,95962
2022-09-04T13:44:50.603Z,95961
2022-09-04T13:46:00.365Z,95962
2022-09-04T13:47:08.165Z,95971
2022-09-04T13:48:16.724Z,95969
2022-09-04T13:49:26.416Z,95957
2022-09-04T13:50:34.065Z,95965
2022-09-04T13:51:42.738Z,95963
2022-09-04T13:52:51.401Z,95969
2022-09-04T13:54:01.045Z,95975
2022-09-04T13:55:10.700Z,95969
2022-09-04T13:56:18.407Z,95970
2022-09-04T13:57:27.209Z,95974
2022-09-04T13:58:36.902Z,95968
2022-09-04T13:59:46.651Z,95965
2022-09-04T14:00:56.312Z,95966
2022-09-04T14:02:06.025Z,95962
2022-09-04T14:03:15.735Z,95965
2022-09-04T14:04:24.441Z,95967
2022-09-04T14:05:33.031Z,95965
2022-09-04T14:06:42.715Z,95978
2022-09-04T14:07:51.392Z,95974
2022-09-04T14:09:04.537Z,95978
2022-09-04T14:10:10.698Z,95969
2022-09-04T14:11:19.364Z,95971
2022-09-04T14:12:29.026Z,95963
2022-09-04T14:13:38.081Z,95968
2022-09-04T14:14:46.357Z,95969
2022-09-04T14:15:56.046Z,95965
2022-09-04T14:17:04.683Z,95967
2022-09-04T14:18:14.352Z,95968
2022-09-04T14:19:24.021Z,95968
2022-09-04T14:20:32.696Z,95966
2022-09-04T14:21:42.827Z,95969
2022-09-04T14:22:52.361Z,95964
2022-09-04T14:24:00.795Z,95966
2022-09-04T14:25:11.620Z,95964
2022-09-04T14:26:19.147Z,95965
2022-09-04T14:27:27.772Z,95958
2022-09-04T14:28:37.457Z,95961
2022-09-04T14:29:46.133Z,95962
2022-09-04T14:30:54.828Z,95960
2022-09-04T14:32:04.569Z,95967
2022-09-04T14:33:13.331Z,95960
2022-09-04T14:34:23.922Z,95963
2022-09-04T14:35:31.573Z,95962
2022-09-04T14:36:40.263Z,95964
2022-09-04T14:37:49.971Z,95958
2022-09-04T14:38:57.625Z,95962
2022-09-04T14:40:06.441Z,95963
2022-09-04T14:41:14.999Z,95961
2022-09-04T14:42:24.651Z,95967
2022-09-04T14:43:34.366Z,95964
2022-09-04T14:44:43.061Z,95960
2022-09-04T14:45:52.691Z,95959
2022-09-04T14:47:02.510Z,95965
2022-09-04T14:48:11.084Z,95961
2022-09-04T14:49:20.900Z,95963